Time;durP1;ratioP1;P1;durP2;ratioP2;P2;SDS_P1;SDS_P2;PMS_P1;PMS_P2;Temp;Humidity;BMP_temperature;BMP_pressure;BME280_temperature;BME280_humidity;BME280_pressure;Samples;Min_cycle;Max_cycle;Signal;HPM_P1;HPM_P2
2021/11/17 02:26:29;;;;;;;1999.90;999.90;;;;;;;0.25;60.97;101493.41;4911384;28;99621;-73
2021/11/17 02:29:24;;;;;;;1999.90;999.90;;;;;;;0.25;61.15;101498.63;4908351;28;97807;-73
2021/11/17 02:32:08;;;;;;;1999.90;999.90;;;;;;;0.25;60.80;101493.41;4928009;28;97521;-72
2021/11/17 02:34:49;;;;;;;1999.90;999.90;;;;;;;0.21;60.99;101495.75;4927613;28;97311;-71
2021/11/17 02:37:32;;;;;;;1999.90;999.90;;;;;;;0.21;60.72;101490.50;4934270;28;97626;-69
2021/11/17 02:40:18;;;;;;;1999.90;999.90;;;;;;;0.19;60.68;101489.47;4932450;28;97891;-72
2021/11/17 02:43:05;;;;;;;1999.90;999.90;;;;;;;0.19;60.81;101489.47;4928809;28;97418;-70
2021/11/17 02:45:59;;;;;;;1999.90;999.90;;;;;;;0.15;60.74;101495.31;4919102;28;97150;-70
2021/11/17 02:48:54;;;;;;;1999.90;999.90;;;;;;;0.13;61.09;101495.97;4928795;28;99038;-71
2021/11/17 02:51:55;;;;;;;1999.90;999.90;;;;;;;0.11;61.22;101501.09;4908287;28;100375;-69
2021/11/17 02:54:42;;;;;;;1999.90;999.90;;;;;;;0.09;61.08;101497.47;4861508;28;97038;-72
2021/11/17 02:57:31;;;;;;;1999.90;999.90;;;;;;;0.09;61.14;101497.47;4926715;28;97777;-71
2021/11/17 03:00:29;;;;;;;1999.90;999.90;;;;;;;0.11;60.91;101502.81;4912381;28;99406;-70
2021/11/17 03:03:13;;;;;;;1999.90;999.90;;;;;;;0.11;61.21;101501.09;4921926;28;97454;-71
2021/11/17 03:06:06;;;;;;;1999.90;999.90;;;;;;;0.13;61.21;101496.91;4911080;28;97178;-71
2021/11/17 03:08:55;;;;;;;1999.90;999.90;;;;;;;0.15;61.05;101503.16;4911664;28;97338;-70
2021/11/17 03:11:47;;;;;;;1999.90;999.90;;;;;;;0.15;61.34;101508.41;4908720;28;97767;-70
2021/11/17 03:14:52;;;;;;;1999.90;999.90;;;;;;;0.17;61.29;101504.16;4930587;28;97767;-71
2021/11/17 03:17:33;;;;;;;1999.90;999.90;;;;;;;0.19;60.93;101505.19;4918485;28;97993;-70
2021/11/17 03:20:23;;;;;;;1999.90;999.90;;;;;;;0.20;61.16;101500.88;4909132;28;97675;-72
2021/11/17 03:23:03;;;;;;;1999.90;999.90;;;;;;;0.23;61.14;101493.22;4927335;28;97850;-71
2021/11/17 03:25:44;;;;;;;1999.90;999.90;;;;;;;0.23;60.93;101491.53;4929492;28;97623;-70
2021/11/17 03:28:34;;;;;;;1999.90;999.90;;;;;;;0.23;60.76;101480.16;4931025;28;97047;-72
2021/11/17 03:31:21;;;;;;;1999.90;999.90;;;;;;;0.28;60.71;101488.38;4922611;28;97789;-71
2021/11/17 03:34:15;;;;;;;1999.90;999.90;;;;;;;0.30;61.18;101482.47;4909865;28;100407;-71
2021/11/17 03:37:03;;;;;;;1999.90;999.90;;;;;;;0.31;60.76;101488.59;4928313;28;97584;-70
2021/11/17 03:40:07;;;;;;;1999.90;999.90;;;;;;;0.33;60.76;101482.69;4931629;28;97053;-70
2021/11/17 03:42:51;;;;;;;1999.90;999.90;;;;;;;0.36;61.01;101468.94;4915096;28;97548;-71
2021/11/17 03:45:43;;;;;;;1999.90;999.90;;;;;;;0.38;61.08;101475.16;4928534;28;97914;-71
2021/11/17 03:48:26;;;;;;;1999.90;999.90;;;;;;;0.40;61.03;101473.56;4914872;28;98913;-70
2021/11/17 03:51:14;;;;;;;1999.90;999.90;;;;;;;0.36;61.13;101472.44;4909185;28;96850;-72
2021/11/17 03:53:56;;;;;;;1999.90;999.90;;;;;;;0.37;60.70;101476.88;4928318;28;98002;-70
2021/11/17 03:56:48;;;;;;;1999.90;999.90;;;;;;;0.38;60.69;101472.53;4931295;28;97875;-72
2021/11/17 03:59:39;;;;;;;1999.90;999.90;;;;;;;0.38;61.00;101472.53;4906418;28;97745;-70
2021/11/17 04:02:23;;;;;;;1999.90;999.90;;;;;;;0.40;60.58;101477.09;4920563;28;97787;-71
2021/11/17 04:05:10;;;;;;;1999.90;999.90;;;;;;;0.38;61.03;101481.31;4911781;28;97888;-70
2021/11/17 04:07:51;;;;;;;1999.90;999.90;;;;;;;0.40;60.76;101476.19;4923267;28;97458;-72
2021/11/17 04:10:44;;;;;;;1999.90;999.90;;;;;;;0.42;60.61;101475.50;4932414;28;97158;-70
2021/11/17 04:13:22;;;;;;;1999.90;999.90;;;;;;;0.45;60.76;101474.81;4928241;28;97060;-72
2021/11/17 04:16:05;;;;;;;1999.90;999.90;;;;;;;0.44;60.54;101476.53;4915648;28;97917;-71
2021/11/17 04:18:45;;;;;;;1999.90;999.90;;;;;;;0.44;60.96;101475.59;4930059;28;97695;-70
2021/11/17 04:21:27;;;;;;;1999.90;999.90;;;;;;;0.46;60.81;101480.16;4929583;28;97653;-70
2021/11/17 04:24:07;;;;;;;1999.90;999.90;;;;;;;0.47;61.16;101478.44;4916014;28;96812;-71
2021/11/17 04:26:49;;;;;;;1999.90;999.90;;;;;;;0.45;60.74;101480.94;4934703;28;98294;-70
2021/11/17 04:29:37;;;;;;;1999.90;999.90;;;;;;;0.44;60.92;101483.47;4933113;28;98924;-72
2021/11/17 04:32:21;;;;;;;1999.90;999.90;;;;;;;0.42;60.62;101483.34;4927344;28;98902;-71
2021/11/17 04:35:02;;;;;;;1999.90;999.90;;;;;;;0.38;61.04;101481.31;4926595;28;97869;-71
2021/11/17 04:37:57;;;;;;;1999.90;999.90;;;;;;;0.36;60.87;101477.66;4910534;28;96967;-71
2021/11/17 04:40:56;;;;;;;1999.90;999.90;;;;;;;0.34;61.23;101466.16;4915657;28;97973;-70
2021/11/17 04:43:41;;;;;;;1999.90;999.90;;;;;;;0.32;61.09;101467.75;4898843;28;98117;-71
2021/11/17 04:46:21;;;;;;;1999.90;999.90;;;;;;;0.34;61.18;101466.16;4908714;28;96879;-69
2021/11/17 04:49:13;;;;;;;1999.90;999.90;;;;;;;0.36;61.10;101468.94;4928553;28;97404;-71
2021/11/17 04:51:56;;;;;;;1999.90;999.90;;;;;;;0.40;61.08;101486.66;4928112;28;100471;-72
2021/11/17 04:54:58;;;;;;;1999.90;999.90;;;;;;;0.38;60.57;101481.31;4912494;28;100664;-71
2021/11/17 04:57:48;;;;;;;1999.90;999.90;;;;;;;0.40;60.79;101490.19;4909964;28;97265;-71
2021/11/17 05:00:33;;;;;;;1999.90;999.90;;;;;;;0.40;60.69;101484.03;4908714;28;98136;-73
2021/11/17 05:03:13;;;;;;;1999.90;999.90;;;;;;;0.38;60.76;101483.94;4904406;28;98551;-71
2021/11/17 05:06:09;;;;;;;1999.90;999.90;;;;;;;0.35;60.91;101488.03;4924540;28;97635;-71
2021/11/17 05:08:45;;;;;;;1999.90;999.90;;;;;;;0.35;60.99;101485.41;4921079;28;96795;-70
2021/11/17 05:11:24;;;;;;;1999.90;999.90;;;;;;;0.33;60.80;101490.53;4914935;28;98741;-70
2021/11/17 05:14:00;;;;;;;1999.90;999.90;;;;;;;0.33;60.91;101482.69;4908913;28;97784;-71
2021/11/17 05:16:41;;;;;;;1999.90;999.90;;;;;;;0.33;60.72;101487.00;4930486;28;98977;-70
2021/11/17 05:19:16;;;;;;;1999.90;999.90;;;;;;;0.34;60.48;101484.50;4933483;28;97576;-72
2021/11/17 05:21:58;;;;;;;1999.90;999.90;;;;;;;0.36;60.99;101487.25;4907846;28;97980;-71
2021/11/17 05:24:42;;;;;;;1999.90;999.90;;;;;;;0.36;60.78;101479.41;4924962;28;97928;-70
2021/11/17 05:27:23;;;;;;;1999.90;999.90;;;;;;;0.36;60.84;101476.78;4909407;28;100018;-71
2021/11/17 05:30:04;;;;;;;1999.90;999.90;;;;;;;0.36;60.48;101476.78;4907321;28;99482;-70
2021/11/17 05:32:46;;;;;;;1999.90;999.90;;;;;;;0.35;60.95;101474.94;4894687;28;97974;-70
2021/11/17 05:35:26;;;;;;;1999.90;999.90;;;;;;;0.36;60.31;101474.16;4929976;28;98817;-71
2021/11/17 05:38:06;;;;;;;1999.90;999.90;;;;;;;0.35;60.60;101474.94;4923041;28;97750;-72
2021/11/17 05:40:47;;;;;;;1999.90;999.90;;;;;;;0.34;60.84;101468.78;4907065;28;97701;-72
2021/11/17 05:43:26;;;;;;;1999.90;999.90;;;;;;;0.34;60.67;101471.41;4924357;28;97172;-73
2021/11/17 05:46:16;;;;;;;1999.90;999.90;;;;;;;0.34;61.05;101473.13;4924647;28;99073;-72
2021/11/17 05:48:55;;;;;;;1999.90;999.90;;;;;;;0.32;61.21;101479.97;4904198;28;97793;-72
2021/11/17 05:51:37;;;;;;;1999.90;999.90;;;;;;;0.32;61.27;101474.72;4903315;28;97637;-72
2021/11/17 05:54:21;;;;;;;1999.90;999.90;;;;;;;0.32;61.07;101477.34;4910073;28;97689;-72
2021/11/17 05:57:11;;;;;;;1999.90;999.90;;;;;;;0.30;60.87;101482.47;4922801;28;98116;-71
2021/11/17 06:00:04;;;;;;;1999.90;999.90;;;;;;;0.29;60.84;101478.03;4905642;28;97721;-73
2021/11/17 06:02:50;;;;;;;1999.90;999.90;;;;;;;0.31;61.03;101478.13;4923570;28;97761;-72
2021/11/17 06:05:17;;;;;;;1999.90;999.90;;;;;;;0.33;60.80;101479.16;4908371;28;97312;-73
2021/11/17 06:07:45;;;;;;;1999.90;999.90;;;;;;;0.33;60.66;101485.31;4920515;28;98682;-74
2021/11/17 06:10:16;;;;;;;1999.90;999.90;;;;;;;0.32;60.63;101479.97;4923381;28;98755;-72
2021/11/17 06:12:44;;;;;;;1999.90;999.90;;;;;;;0.31;60.58;101483.34;4907036;28;96949;-74
2021/11/17 06:15:15;;;;;;;1999.90;999.90;;;;;;;0.29;60.46;101474.47;4923775;28;97584;-73
2021/11/17 06:17:45;;;;;;;1999.90;999.90;;;;;;;0.28;61.09;101480.53;4901659;28;99815;-71
2021/11/17 06:20:16;;;;;;;1999.90;999.90;;;;;;;0.30;60.96;101478.94;4906447;28;97745;-72
2021/11/17 06:22:47;;;;;;;1999.90;999.90;;;;;;;0.27;60.64;101481.31;4921785;28;97913;-72
2021/11/17 06:25:17;;;;;;;1999.90;999.90;;;;;;;0.28;60.83;101477.91;4923537;28;97247;-73
2021/11/17 06:27:47;;;;;;;1999.90;999.90;;;;;;;0.31;60.64;101475.50;4922684;28;97421;-71
2021/11/17 06:30:17;;;;;;;1999.90;999.90;;;;;;;0.33;60.29;101487.00;4920248;28;98859;-71
2021/11/17 06:32:45;;;;;;;1999.90;999.90;;;;;;;0.34;60.51;101487.09;4922523;28;97179;-71
2021/11/17 06:35:14;;;;;;;1999.90;999.90;;;;;;;0.32;60.78;101495.66;4922164;28;98338;-73
2021/11/17 06:37:42;;;;;;;1999.90;999.90;;;;;;;0.34;60.99;101499.31;4902970;28;99696;-70
2021/11/17 06:40:15;;;;;;;1999.90;999.90;;;;;;;0.34;60.87;101497.56;4922643;28;98860;-72
2021/11/17 06:42:47;;;;;;;1999.90;999.90;;;;;;;0.37;60.75;101500.44;4907921;28;97101;-71
2021/11/17 06:45:17;;;;;;;1999.90;999.90;;;;;;;0.38;60.51;101506.56;4925812;28;97813;-72
2021/11/17 06:47:45;;;;;;;1999.90;999.90;;;;;;;0.36;60.36;101498.59;4925544;28;97133;-70
2021/11/17 06:50:15;;;;;;;1999.90;999.90;;;;;;;0.33;60.65;101501.00;4928185;28;98972;-71
2021/11/17 06:52:43;;;;;;;1999.90;999.90;;;;;;;0.32;60.54;101506.13;4915673;28;97058;-72
2021/11/17 06:55:11;;;;;;;1999.90;999.90;;;;;;;0.32;60.39;101508.75;4924174;28;96936;-71
2021/11/17 06:57:39;;;;;;;1999.90;999.90;;;;;;;0.29;61.12;101505.88;4929817;28;99144;-73
2021/11/17 07:00:10;;;;;;;1999.90;999.90;;;;;;;0.29;60.80;101513.75;4906231;28;100036;-71
2021/11/17 07:02:38;;;;;;;1999.90;999.90;;;;;;;0.28;60.90;101515.47;4911814;28;96846;-72
2021/11/17 07:05:08;;;;;;;1999.90;999.90;;;;;;;0.29;61.02;101513.75;4905850;28;97727;-71
2021/11/17 07:07:36;;;;;;;1999.90;999.90;;;;;;;0.29;61.12;101521.59;4917771;28;98031;-71
2021/11/17 07:10:04;;;;;;;1999.90;999.90;;;;;;;0.27;60.77;101513.63;4910993;28;99385;-72
2021/11/17 07:12:36;;;;;;;1999.90;999.90;;;;;;;0.29;60.84;101501.56;4929472;28;97272;-71
2021/11/17 07:15:06;;;;;;;1999.90;999.90;;;;;;;0.29;61.26;101511.13;4929606;28;97507;-73
2021/11/17 07:17:35;;;;;;;1999.90;999.90;;;;;;;0.27;61.18;101505.78;4926583;28;98197;-69
2021/11/17 07:20:05;;;;;;;1999.90;999.90;;;;;;;0.28;61.19;101509.31;4927099;28;97974;-71
2021/11/17 07:22:33;;;;;;;1999.90;999.90;;;;;;;0.29;61.45;101493.72;4907538;28;97872;-72
2021/11/17 07:25:00;;;;;;;1999.90;999.90;;;;;;;0.32;61.13;101500.91;4910396;28;97136;-71
2021/11/17 07:27:28;;;;;;;1999.90;999.90;;;;;;;0.29;61.40;101503.28;4932511;28;97886;-71
2021/11/17 07:29:56;;;;;;;1999.90;999.90;;;;;;;0.28;61.25;101505.00;4909724;28;100963;-71
2021/11/17 07:32:25;;;;;;;1999.90;999.90;;;;;;;0.26;61.29;101505.69;4905312;28;97794;-71
2021/11/17 07:34:54;;;;;;;1999.90;999.90;;;;;;;0.25;61.53;101510.00;4926765;28;97383;-73
2021/11/17 07:37:22;;;;;;;1999.90;999.90;;;;;;;0.21;61.51;101500.09;4911338;28;100368;-72
2021/11/17 07:39:50;;;;;;;1999.90;999.90;;;;;;;0.22;61.46;101509.75;4931005;28;97518;-71
2021/11/17 07:42:18;;;;;;;1999.90;999.90;;;;;;;0.21;61.40;101514.06;4930136;28;96751;-72
2021/11/17 07:44:48;;;;;;;1999.90;999.90;;;;;;;0.23;61.44;101518.50;4926650;28;97789;-71
2021/11/17 07:47:16;;;;;;;1999.90;999.90;;;;;;;0.23;61.39;101522.00;4925287;28;97506;-72
2021/11/17 07:49:44;;;;;;;1999.90;999.90;;;;;;;0.24;61.53;101513.41;4915895;28;98155;-71
2021/11/17 07:52:13;;;;;;;1999.90;999.90;;;;;;;0.26;61.45;101522.31;4915449;28;97104;-72
2021/11/17 07:54:41;;;;;;;1999.90;999.90;;;;;;;0.27;61.23;101513.63;4923779;28;96906;-72
2021/11/17 07:57:09;;;;;;;1999.90;999.90;;;;;;;0.28;61.29;101509.31;4921855;28;99651;-72
2021/11/17 07:59:38;;;;;;;1999.90;999.90;;;;;;;0.32;60.85;101514.00;4927088;28;97852;-72
2021/11/17 08:02:08;;;;;;;1999.90;999.90;;;;;;;0.32;61.22;101504.41;4920993;28;97574;-73
2021/11/17 08:04:38;;;;;;;1999.90;999.90;;;;;;;0.34;61.09;101505.44;4905131;28;97682;-73
2021/11/17 08:07:08;;;;;;;1999.90;999.90;;;;;;;0.34;61.30;101504.56;4933333;28;97678;-74
2021/11/17 08:09:37;;;;;;;1999.90;999.90;;;;;;;0.33;61.02;101503.63;4927642;28;97950;-72
2021/11/17 08:12:06;;;;;;;1999.90;999.90;;;;;;;0.34;60.92;101496.69;4918492;28;96793;-73
2021/11/17 08:14:33;;;;;;;1999.90;999.90;;;;;;;0.35;61.14;101495.88;4915222;28;98008;-73
2021/11/17 08:17:01;;;;;;;1999.90;999.90;;;;;;;0.35;61.41;101501.13;4931708;28;97863;-73
2021/11/17 08:19:29;;;;;;;1999.90;999.90;;;;;;;0.36;61.09;101497.72;4933487;28;97598;-72
2021/11/17 08:21:57;;;;;;;1999.90;999.90;;;;;;;0.35;60.83;101495.88;4916054;28;97122;-73
2021/11/17 08:24:25;;;;;;;1999.90;999.90;;;;;;;0.35;61.03;101488.94;4915073;28;97258;-71
2021/11/17 08:26:54;;;;;;;1999.90;999.90;;;;;;;0.36;61.22;101496.00;4930414;28;99018;-73
2021/11/17 08:29:22;;;;;;;1999.90;999.90;;;;;;;0.36;60.99;101501.22;4932080;28;98660;-72
2021/11/17 08:31:49;;;;;;;1999.90;999.90;;;;;;;0.33;60.90;101497.47;4905494;28;97569;-72
2021/11/17 08:34:18;;;;;;;1999.90;999.90;;;;;;;0.35;61.21;101498.50;4907612;28;97490;-73
2021/11/17 08:36:46;;;;;;;1999.90;999.90;;;;;;;0.34;61.11;101504.56;4908976;28;99576;-73
2021/11/17 08:39:16;;;;;;;1999.90;999.90;;;;;;;0.32;61.63;101495.66;4925460;28;96871;-73
2021/11/17 08:41:45;;;;;;;1999.90;999.90;;;;;;;0.32;61.25;101490.44;4926130;28;96828;-74
2021/11/17 08:44:14;;;;;;;1999.90;999.90;;;;;;;0.31;61.48;101502.59;4892886;28;97878;-74
2021/11/17 08:46:42;;;;;;;1999.90;999.90;;;;;;;0.29;61.83;101498.03;4923634;28;97606;-72
2021/11/17 08:49:09;;;;;;;1999.90;999.90;;;;;;;0.29;61.56;101500.66;4907714;28;99419;-72
2021/11/17 08:51:37;;;;;;;1999.90;999.90;;;;;;;0.30;61.40;101502.50;4909744;28;97171;-73
2021/11/17 08:54:06;;;;;;;1999.90;999.90;;;;;;;0.29;61.57;101493.72;4931022;28;96874;-71
2021/11/17 08:56:34;;;;;;;1999.90;999.90;;;;;;;0.32;61.75;101495.66;4912027;28;99305;-73
2021/11/17 08:59:03;;;;;;;1999.90;999.90;;;;;;;0.31;61.54;101485.97;4909400;28;97587;-72
2021/11/17 09:01:33;;;;;;;1999.90;999.90;;;;;;;0.35;61.50;101490.66;4934801;28;97626;-80
2021/11/17 09:04:05;;;;;;;1999.90;999.90;;;;;;;0.35;61.32;101481.09;4894588;28;98015;-73
2021/11/17 09:06:34;;;;;;;1999.90;999.90;;;;;;;0.36;61.48;101492.47;4900639;28;99359;-72
2021/11/17 09:09:05;;;;;;;1999.90;999.90;;;;;;;0.33;61.15;101477.44;4926151;28;98052;-75
2021/11/17 09:11:35;;;;;;;1999.90;999.90;;;;;;;0.35;61.29;101485.41;4931871;28;97481;-74
2021/11/17 09:14:03;;;;;;;1999.90;999.90;;;;;;;0.35;61.17;101488.94;4892620;28;97531;-73
2021/11/17 09:16:33;;;;;;;1999.90;999.90;;;;;;;0.33;61.65;101482.69;4914699;28;98810;-72
2021/11/17 09:19:02;;;;;;;1999.90;999.90;;;;;;;0.36;61.25;101488.13;4908075;28;98970;-72
2021/11/17 09:21:33;;;;;;;1999.90;999.90;;;;;;;0.37;61.39;101479.50;4932293;28;97383;-74
2021/11/17 09:24:01;;;;;;;1999.90;999.90;;;;;;;0.37;61.46;101484.75;4910685;28;97773;-73
2021/11/17 09:26:29;;;;;;;1999.90;999.90;;;;;;;0.38;61.67;101478.69;4915939;28;97774;-73
2021/11/17 09:28:57;;;;;;;1999.90;999.90;;;;;;;0.41;61.59;101476.28;4914259;28;97822;-73
2021/11/17 09:31:27;;;;;;;1999.90;999.90;;;;;;;0.40;61.56;101476.19;4936528;28;98178;-72
2021/11/17 09:33:57;;;;;;;1999.90;999.90;;;;;;;0.41;61.36;101485.88;4931935;28;97089;-75
2021/11/17 09:36:28;;;;;;;1999.90;999.90;;;;;;;0.43;61.75;101484.28;4928539;28;97464;-72
2021/11/17 09:38:57;;;;;;;1999.90;999.90;;;;;;;0.48;61.86;101482.88;4932638;28;97657;-73
2021/11/17 09:41:27;;;;;;;1999.90;999.90;;;;;;;0.51;61.55;101476.16;4941094;28;97888;-73
2021/11/17 09:43:57;;;;;;;1999.90;999.90;;;;;;;0.52;61.79;101485.81;4913953;28;97411;-75
2021/11/17 09:46:28;;;;;;;1999.90;999.90;;;;;;;0.56;61.27;101484.38;4925827;28;97844;-72
2021/11/17 09:49:07;;;;;;;1999.90;999.90;;;;;;;0.59;61.30;101484.56;4911384;28;100253;-74
2021/11/17 09:51:37;;;;;;;1999.90;999.90;;;;;;;0.63;61.20;101491.84;4912796;28;97078;-73
2021/11/17 09:54:11;;;;;;;1999.90;999.90;;;;;;;0.62;61.15;101487.41;4929951;28;98820;-73
2021/11/17 09:56:40;;;;;;;1999.90;999.90;;;;;;;0.66;61.09;101490.38;4931442;28;97785;-73
2021/11/17 09:59:18;;;;;;;1999.90;999.90;;;;;;;0.70;61.18;101486.25;4927256;28;99020;-73
2021/11/17 10:01:49;;;;;;;1999.90;999.90;;;;;;;0.72;61.06;101482.03;4918866;28;98009;-73
2021/11/17 10:04:22;;;;;;;1999.90;999.90;;;;;;;0.77;60.77;101485.88;4931062;28;97552;-73
2021/11/17 10:10:11;;;;;;;1999.90;999.90;;;;;;;0.81;61.03;101485.31;4856656;28;97553;-72
2021/11/17 10:12:49;;;;;;;1999.90;999.90;;;;;;;0.84;60.98;101472.41;4842644;28;97001;-72
2021/11/17 10:15:22;;;;;;;1999.90;999.90;;;;;;;0.89;61.37;101476.25;4902130;28;97102;-73
2021/11/17 10:17:52;;;;;;;1999.90;999.90;;;;;;;0.95;60.71;101475.00;4925868;28;97722;-73
2021/11/17 10:20:40;;;;;;;1999.90;999.90;;;;;;;1.00;60.94;101475.31;4918389;28;98198;-73
2021/11/17 10:23:18;;;;;;;1999.90;999.90;;;;;;;1.02;60.97;101479.88;4928616;28;97221;-71
2021/11/17 10:25:50;;;;;;;1999.90;999.90;;;;;;;1.05;60.38;101472.22;4921578;28;98095;-72
2021/11/17 10:28:24;;;;;;;1999.90;999.90;;;;;;;1.08;60.58;101476.78;4912688;28;99152;-72
2021/11/17 10:30:56;;;;;;;1999.90;999.90;;;;;;;1.11;61.02;101474.34;4931404;28;97601;-71
2021/11/17 10:33:27;;;;;;;1999.90;999.90;;;;;;;1.14;60.89;101475.47;4914255;28;98485;-72
2021/11/17 10:36:14;;;;;;;1999.90;999.90;;;;;;;1.17;60.58;101482.66;4929438;28;96871;-72
2021/11/17 10:38:45;;;;;;;1999.90;999.90;;;;;;;1.23;60.92;101487.41;4930595;28;98677;-72
2021/11/17 10:41:20;;;;;;;1999.90;999.90;;;;;;;1.26;60.65;101483.28;4930033;28;97860;-72
2021/11/17 10:43:55;;;;;;;1999.90;999.90;;;;;;;1.29;60.35;101478.25;4894217;28;97565;-73
2021/11/17 10:46:26;;;;;;;1999.90;999.90;;;;;;;1.35;60.23;101486.56;4931103;28;96807;-73
2021/11/17 10:48:57;;;;;;;1999.90;999.90;;;;;;;1.36;60.35;101480.47;4926557;28;97658;-72
2021/11/17 10:51:32;;;;;;;1999.90;999.90;;;;;;;1.38;59.99;101478.00;4914797;28;100574;-73
2021/11/17 10:54:02;;;;;;;1999.90;999.90;;;;;;;1.40;60.27;101481.63;4921017;28;98342;-71
2021/11/17 10:56:31;;;;;;;1999.90;999.90;;;;;;;1.43;60.29;101477.50;4930335;28;96662;-72
2021/11/17 10:59:00;;;;;;;1999.90;999.90;;;;;;;1.47;59.97;101490.00;4912025;28;98591;-71
2021/11/17 11:01:31;;;;;;;1999.90;999.90;;;;;;;1.50;60.30;101486.69;4916990;28;100731;-72
2021/11/17 11:04:01;;;;;;;1999.90;999.90;;;;;;;1.53;60.16;101479.94;4920429;28;96746;-73
2021/11/17 11:06:33;;;;;;;1999.90;999.90;;;;;;;1.57;60.32;101475.81;4930142;28;97154;-72
2021/11/17 11:09:05;;;;;;;1999.90;999.90;;;;;;;1.62;60.60;101475.31;4910052;28;97772;-74
2021/11/17 11:11:36;;;;;;;1999.90;999.90;;;;;;;1.65;59.66;101475.50;4933672;28;98242;-72
2021/11/17 11:14:10;;;;;;;1999.90;999.90;;;;;;;1.67;60.39;101470.41;4927343;28;97031;-73
2021/11/17 11:16:55;;;;;;;1999.90;999.90;;;;;;;1.71;59.65;101469.78;4927842;28;97343;-71
2021/11/17 11:19:30;;;;;;;1999.90;999.90;;;;;;;1.76;59.92;101465.75;4918883;28;100802;-72
2021/11/17 11:22:11;;;;;;;1999.90;999.90;;;;;;;1.79;60.31;101460.72;4907579;28;100352;-71
2021/11/17 11:24:40;;;;;;;1999.90;999.90;;;;;;;1.85;59.94;101462.03;4912852;28;97036;-72
2021/11/17 11:27:31;;;;;;;1999.90;999.90;;;;;;;1.89;58.98;101474.53;4906243;28;98019;-72
2021/11/17 11:30:41;;;;;;;1999.90;999.90;;;;;;;1.90;60.11;101468.50;4932779;28;97198;-73
2021/11/17 11:33:22;;;;;;;1999.90;999.90;;;;;;;1.92;59.50;101460.72;4910142;28;98080;-73
2021/11/17 11:36:36;;;;;;;1999.90;999.90;;;;;;;1.96;59.63;101468.00;4908994;28;97779;-72
2021/11/17 11:39:32;;;;;;;1999.90;999.90;;;;;;;2.00;59.98;101460.41;4913610;28;97416;-72
2021/11/17 11:42:39;;;;;;;1999.90;999.90;;;;;;;2.03;59.56;101452.75;4929184;28;97597;-72
2021/11/17 11:45:35;;;;;;;1999.90;999.90;;;;;;;2.07;58.69;101454.75;4913495;28;100278;-71
2021/11/17 11:48:04;;;;;;;1999.90;999.90;;;;;;;2.13;59.88;101447.34;4927281;28;97263;-73
2021/11/17 11:50:56;;;;;;;1999.90;999.90;;;;;;;2.17;59.39;101438.84;4924284;28;96796;-73
2021/11/17 11:53:29;;;;;;;1999.90;999.90;;;;;;;2.26;59.11;101448.13;4907066;28;99179;-71
2021/11/17 11:56:30;;;;;;;1999.90;999.90;;;;;;;2.31;58.70;101441.47;4910898;28;97765;-71
2021/11/17 11:59:03;;;;;;;1999.90;999.90;;;;;;;2.39;59.28;101445.47;4904462;28;97224;-72
2021/11/17 12:01:32;;;;;;;1999.90;999.90;;;;;;;2.45;58.67;101445.88;4916325;28;96954;-73
2021/11/17 12:04:03;;;;;;;1999.90;999.90;;;;;;;2.45;59.13;101443.25;4911572;28;97833;-72
2021/11/17 12:06:39;;;;;;;1999.90;999.90;;;;;;;2.48;58.60;101440.81;4937655;28;97761;-72
2021/11/17 12:09:28;;;;;;;1999.90;999.90;;;;;;;2.46;58.17;101435.47;4912614;28;96769;-71
2021/11/17 12:11:59;;;;;;;1999.90;999.90;;;;;;;2.52;59.12;101429.69;4932582;28;97540;-73
2021/11/17 12:14:32;;;;;;;1999.90;999.90;;;;;;;2.56;59.11;101430.00;4927749;28;97943;-75
2021/11/17 12:17:01;;;;;;;1999.90;999.90;;;;;;;2.61;58.78;101433.81;4923731;28;97893;-73
2021/11/17 12:19:32;;;;;;;1999.90;999.90;;;;;;;2.63;58.49;101437.44;4914255;28;97103;-71
2021/11/17 12:22:08;;;;;;;1999.90;999.90;;;;;;;2.66;58.30;101442.88;4926614;28;97807;-73
2021/11/17 12:24:38;;;;;;;1999.90;999.90;;;;;;;2.70;58.65;101449.25;4933931;28;97943;-74
2021/11/17 12:27:10;;;;;;;1999.90;999.90;;;;;;;2.71;58.87;101445.81;4918450;28;99222;-73
2021/11/17 12:29:49;;;;;;;1999.90;999.90;;;;;;;2.73;58.63;101442.47;4920478;28;97840;-72
2021/11/17 12:32:23;;;;;;;1999.90;999.90;;;;;;;2.78;58.28;101442.75;4931405;28;97382;-73
2021/11/17 12:34:56;;;;;;;1999.90;999.90;;;;;;;2.82;58.76;101434.28;4931759;28;97805;-74
2021/11/17 12:37:27;;;;;;;1999.90;999.90;;;;;;;2.85;58.35;101422.22;4914562;28;99240;-72
2021/11/17 12:39:58;;;;;;;1999.90;999.90;;;;;;;2.90;58.80;101418.16;4919080;28;97895;-73
2021/11/17 12:42:30;;;;;;;1999.90;999.90;;;;;;;2.96;58.23;101415.00;4914182;28;97575;-73
2021/11/17 12:45:00;;;;;;;1999.90;999.90;;;;;;;3.01;58.40;101422.34;4933687;28;97901;-72
2021/11/17 12:47:31;;;;;;;1999.90;999.90;;;;;;;3.04;57.86;101413.72;4933577;28;97363;-73
2021/11/17 12:50:04;;;;;;;1999.90;999.90;;;;;;;3.07;57.95;101416.56;4928565;28;97631;-73
2021/11/17 12:52:36;;;;;;;1999.90;999.90;;;;;;;3.09;57.86;101417.56;4916719;28;96781;-73
2021/11/17 12:55:08;;;;;;;1999.90;999.90;;;;;;;3.11;58.40;101413.31;4933775;28;97845;-72
2021/11/17 12:57:41;;;;;;;1999.90;999.90;;;;;;;3.11;58.41;101423.81;4913880;28;97737;-73
2021/11/17 13:00:50;;;;;;;1999.90;999.90;;;;;;;3.08;57.57;101413.09;4914204;28;97025;-72
2021/11/17 13:03:31;;;;;;;1999.90;999.90;;;;;;;3.06;57.69;101418.28;4914773;28;97323;-72
2021/11/17 13:06:25;;;;;;;1999.90;999.90;;;;;;;3.06;58.04;101412.09;4923002;28;98267;-71
2021/11/17 13:09:12;;;;;;;1999.90;999.90;;;;;;;3.08;57.65;101414.00;4891012;28;99029;-72
2021/11/17 13:11:49;;;;;;;1999.90;999.90;;;;;;;3.09;57.84;101415.81;4930267;28;97308;-71
2021/11/17 13:14:24;;;;;;;1999.90;999.90;;;;;;;3.09;57.97;101412.31;4913232;28;96833;-73
2021/11/17 13:16:53;;;;;;;1999.90;999.90;;;;;;;3.13;58.10;101409.06;4927114;28;97345;-72
2021/11/17 13:19:24;;;;;;;1999.90;999.90;;;;;;;3.14;57.96;101397.72;4923535;28;97418;-72
2021/11/17 13:21:53;;;;;;;1999.90;999.90;;;;;;;3.15;58.05;101394.25;4925777;28;97186;-72
2021/11/17 13:24:38;;;;;;;1999.90;999.90;;;;;;;3.16;58.05;101396.09;4927458;28;97660;-73
2021/11/17 13:27:25;;;;;;;1999.90;999.90;;;;;;;3.17;57.98;101403.13;4923642;28;98844;-73
2021/11/17 13:29:57;;;;;;;1999.90;999.90;;;;;;;3.21;57.90;101399.88;4905963;28;100614;-71
2021/11/17 13:32:28;;;;;;;1999.90;999.90;;;;;;;3.21;58.00;101406.06;4925520;28;96843;-70
2021/11/17 13:34:58;;;;;;;1999.90;999.90;;;;;;;3.22;58.16;101401.72;4907046;28;97261;-71
2021/11/17 13:37:35;;;;;;;1999.90;999.90;;;;;;;3.21;57.86;101395.53;4926694;28;98720;-70
2021/11/17 13:40:07;;;;;;;1999.90;999.90;;;;;;;3.24;57.96;101392.16;4908559;28;98006;-71
2021/11/17 13:42:36;;;;;;;1999.90;999.90;;;;;;;3.25;58.26;101396.63;4924669;28;96867;-72
2021/11/17 13:45:08;;;;;;;1999.90;999.90;;;;;;;3.26;58.20;101397.56;4924475;28;97731;-70
2021/11/17 13:47:36;;;;;;;1999.90;999.90;;;;;;;3.28;57.94;101409.97;4905885;28;100389;-70
2021/11/17 13:50:07;;;;;;;1999.90;999.90;;;;;;;3.28;57.98;101412.59;4930556;28;98021;-72
2021/11/17 13:52:36;;;;;;;1999.90;999.90;;;;;;;3.29;57.96;101414.41;4931442;28;97289;-72
2021/11/17 13:55:07;;;;;;;1999.90;999.90;;;;;;;3.27;58.16;101426.56;4916336;28;97347;-70
2021/11/17 13:57:35;;;;;;;1999.90;999.90;;;;;;;3.26;58.38;101422.09;4918390;28;97775;-71
2021/11/17 14:00:07;;;;;;;1999.90;999.90;;;;;;;3.27;58.39;101431.81;4929581;28;98846;-70
2021/11/17 14:02:38;;;;;;;1999.90;999.90;;;;;;;3.23;58.37;101435.09;4932034;28;97418;-71
2021/11/17 14:05:06;;;;;;;1999.90;999.90;;;;;;;3.21;58.38;101436.69;4932408;28;96802;-71